Espace membre
Imprimable
Challenges > Delhalle - Butgenbach, 03/05/2014, BEL - Rund um den See
Liste des rapports > Delhalle - 21,1km - Classement
Recherche: Page: [1]
356 Entrées
 
Les réclamations ne sont plus acceptées, les résultats sont considérés comme définitifs.
Catégorie
PosNrNomAgeIOCLigueEquipeRéelTempsTkmMoy.RangNomPtsLocalité
1.1101FAYS Guy45BELRFCL1:15:201:15:213:35 16.801VE11124OUPEYET?l?chargez votre diplome!
2.659MAHIA Sebastien28BELNIKE1:15:251:15:263:35 16.781SEN1121NAMURT?l?chargez votre diplome!
3.15VANDERSTRAETEN Patrick50BELVITATRAINING 71:16:151:16:163:37 16.601VE21107TUBIZET?l?chargez votre diplome!
4.238VAN DEN ABEELE Sebastian44BELACLOJOGGING PLUS1:16:441:16:453:39 16.502VE11098CARNIEREST?l?chargez votre diplome!
5.1069VETS Herman48BELLIER1:17:051:17:063:40 16.423ve11091T?l?chargez votre diplome!
6.1186MICHAELI Marco38BEL1:17:261:17:263:41 16.352SEN1085T?l?chargez votre diplome!
7.1199VLIEGEN Erik36BELSCB TRI1:17:491:17:503:42 16.273SEN1078BÛLLINGENT?l?chargez votre diplome!
8.1163OUMAROU Yahaya27BELMYSTERE1:17:511:17:523:42 16.264SEN1077T?l?chargez votre diplome!
9.24RECKER Marcel Wilhelm53BELLAC EUPEN1:19:561:19:573:48 15.842ve21043AMELT?l?chargez votre diplome!
10.753ESSABRI Abdelnasser Farid51BELSERRUNNERS1:20:431:20:443:50 15.683ve21030SERAINGT?l?chargez votre diplome!
11.1180LOUYS Michael28BELTA1:21:401:21:413:53 15.505SEN1015MALMEDYT?l?chargez votre diplome!
12.944MERCENIER Alain45BELL'AVENIR1:22:121:22:143:54 15.404ve11006FROIDTHIERT?l?chargez votre diplome!
13.1123HOPELOOS Jopie45BELLIERSE1:22:301:22:323:55 15.345ve11001T?l?chargez votre diplome!
14.237DOS SANTOS NEIVA Sergio41BELARCHJOGGPLUS1:22:591:23:003:57 15.256ve1993DINANTT?l?chargez votre diplome!
15.230SANCHEZ POSADA Luis54BELUSBWCACE1:24:111:24:134:00 15.034ve2974RHODE ST GENESET?l?chargez votre diplome!
16.1110RUPP Rainer33BEL1:24:131:24:154:00 15.036SEN972T?l?chargez votre diplome!
17.1143TOELANTS Stefan42BELBEFAST1:24:241:24:264:01 15.007ve1969BRASSCHAATT?l?chargez votre diplome!
18.921ROSSI Claude56BEL1:24:281:24:294:01 14.995ve2967YVOIRT?l?chargez votre diplome!
19.1077FICKERS Daniel48BELSC BÜTGSC BUTGENBACH1:24:351:24:374:01 14.968ve1964T?l?chargez votre diplome!
20.1060VAN DUPPEN Matthijs35BEL1:24:341:24:384:01 14.967SEN964BALENT?l?chargez votre diplome!
21.606MERCKX Patrick53BELVOLHARDING1:25:031:25:044:02 14.886ve2955BEVERENT?l?chargez votre diplome!
22.863HACKENS Yannick44BELERTK KELMIS1:25:021:25:054:02 14.889ve1955EUPENT?l?chargez votre diplome!
23.1034KLINGES Olivier46BEL1:25:061:25:074:03 14.8710ve1953ST.VITHT?l?chargez votre diplome!
24.412OERLEMANS Thomas28BELCPMV1:25:031:25:104:03 14.878SEN953MARCINELLET?l?chargez votre diplome!
25.1076ROZEIN Dieter48BELSC BUTGENBACH1:25:251:25:274:03 14.8211ve1946T?l?chargez votre diplome!
26.588HENDRICKX Jan55BELAVN1:25:331:25:344:04 14.807ve2943HOOGSTRATENT?l?chargez votre diplome!
27.1179GERRETZ Dominik30BELAC EIFEAC EIFEL1:25:341:25:394:04 14.789SEN942T?l?chargez votre diplome!
28.768FANDRES Gaby42BELSCBUTG1:26:151:26:174:06 14.671AI1931NIDRUMT?l?chargez votre diplome!
29.524CHARLIER Alain44BEL1:26:171:26:204:06 14.6712ve1930BOUGET?l?chargez votre diplome!
30.899LEHANCE Pascal42BELRFCL1:26:421:26:434:07 14.6013ve1924T?l?chargez votre diplome!
31.975LEONARD Marc45BELFCHAFCHA1:27:031:27:064:08 14.5414ve1917VILLERS-LE-PEUPLIERT?l?chargez votre diplome!
32.1035CREMER Roger64BELSC BÜTGENBACH1:27:341:27:354:10 14.461ve3909WAIMEST?l?chargez votre diplome!
33.228MARCHAL Yves44BELRUNNING WILD1:27:571:28:004:11 14.3915ve1903VEDRINT?l?chargez votre diplome!
34.219KOLP Vincent27BEL1:28:191:28:234:12 14.3210SEN897BRUXELLEST?l?chargez votre diplome!
35.983CULLOP Paul53BELENJAMBEE1:28:461:28:464:13 14.268ve2890BRUXELLEST?l?chargez votre diplome!
36.1173SCHMITZ Alain32BEL1:28:541:28:564:13 14.2411sen887T?l?chargez votre diplome!
37.1029GROSS Bruno43BELSC ELSENBORN1:28:541:29:004:14 14.2316ve1886ELSENBORNT?l?chargez votre diplome!
38.1007CLAAHSEN Uli59DEUSV BERGWACHT RO1:29:021:29:074:14 14.219ve2883MONSCHAUT?l?chargez votre diplome!
39.445RUELLE Jean42BELETCHIEVR1:29:101:29:124:14 14.1917ve1880WEZEMBEEK-OPPEMT?l?chargez votre diplome!
40.1065VEROUGSTRAETE Benoit51BELRIWARIWA1:29:161:29:204:14 14.1710ve2878RIXENSARTT?l?chargez votre diplome!
41.765MATERNE Daniel56BELUSBWMYSTERE1:29:211:29:274:15 14.1511ve2876BRAINE-L'ALLEUDT?l?chargez votre diplome!
42.78DUTRIEUX Fernand43BELVELAINES1:30:001:30:004:16 14.0718ve1866BAUDOURT?l?chargez votre diplome!
43.1215LONGERICH Ricardo26BEL1:30:021:30:074:17 14.0512sen865T?l?chargez votre diplome!
44.702GIOVANNANGELO Alain62BELESMESM1:30:131:30:144:17 14.032ve3861T?l?chargez votre diplome!
45.1064VERBESSELT Frank39BELHRC1:30:071:30:174:17 14.0213sen862DENDERMONDET?l?chargez votre diplome!
46.1150JACQMIN Damien35BEL1:30:231:30:254:18 14.0014sen857T?l?chargez votre diplome!
47.1216DOUTRELOUX Francois26BEL1:30:451:30:504:19 13.9415sen851STAVELOTT?l?chargez votre diplome!
48.1086DE BEUCKELAER Eric48BEL1:30:571:30:594:19 13.9119ve1848T?l?chargez votre diplome!
49.1105FRANSEN Koen38BELAVN1:30:561:31:084:20 13.8916sen847T?l?chargez votre diplome!
50.1137BOSTEN Manfred Felix44BELTRI TEAM EUPEN1:31:201:31:224:20 13.8620ve1840EUPENT?l?chargez votre diplome!
51.1170LENTZ Rainer39BEL1:31:041:31:264:20 13.8517sen843T?l?chargez votre diplome!
52.1193JACOBS Mario39BELAC EIFEL1:31:301:31:324:21 13.8318sen836T?l?chargez votre diplome!
53.1012DEJARDIN Frédéric43BELVERS L'AVENIR1:31:331:31:404:21 13.8121ve1835AYENEUXT?l?chargez votre diplome!
54.1157BOEMER Mirko36BEL1:31:451:31:524:22 13.7819sen831T?l?chargez votre diplome!
55.705VANDEVENNE Patrick51BELUSBW1:31:491:31:554:22 13.7812ve2829WATERLOOT?l?chargez votre diplome!
56.26DRAMAIX Sylvain35BELLA FORESTIERE1:32:061:32:124:23 13.7320sen825HERCHIEST?l?chargez votre diplome!
57.236DUYCK Xavier47BEL1:32:091:32:174:23 13.7222ve1823SPYT?l?chargez votre diplome!
58.86TENRET Daniel60BELESM1:32:191:32:244:23 13.703ve3820ACOZT?l?chargez votre diplome!
59.712LORENT Xavier33BEL1:32:181:32:244:23 13.7021sen819T?l?chargez votre diplome!
60.146VAN NEVEL Frans60BELBEHO1:32:531:32:554:25 13.634ve3810BRUGGET?l?chargez votre diplome!
61.1217KLOCKER Martin47BEL1:33:091:33:134:26 13.5823ve1806T?l?chargez votre diplome!
62.1038LOWIE Frank49BELVOLHARDING1:33:291:33:304:26 13.5424ve1801BEVERENT?l?chargez votre diplome!
63.1102GOMZE Michel47BELSKINFIT1:33:331:33:414:27 13.5225ve1799T?l?chargez votre diplome!
64.74BROUWIER Pierre62BELHERVE1:33:341:33:414:27 13.525ve3798GRAND RECHAINT?l?chargez votre diplome!
65.1053SCHOLL Michael38BELPROBIERER1:33:371:33:434:27 13.5122sen796ELSENBORNT?l?chargez votre diplome!
66.1109HENSCH Markus52BELFLOTTMOD1:33:511:33:534:27 13.4913ve2792T?l?chargez votre diplome!
67.364DEWAIDE Antoni41BEL1:34:341:34:404:30 13.3826ve1782T?l?chargez votre diplome!
68.294HASSOUTE Elmoustafa48BELCSF1:35:061:35:064:31 13.3127ve1774FORESTT?l?chargez votre diplome!
69.1198BALSAN Luc46FRA1:34:591:35:134:31 13.3028ve1774LIÈGET?l?chargez votre diplome!
70.862GIROULLE Lionel38BEL1:35:171:35:174:31 13.2923sen770WANFERCÉE BAULETT?l?chargez votre diplome!
71.1126DEKNOP Benoit44BELCPMVCPMV1:35:221:35:294:32 13.2629ve1768T?l?chargez votre diplome!
72.1075VAN HOOF Eddy53BEL1:35:221:35:314:32 13.2614ve2767T?l?chargez votre diplome!
73.1070JENNIGES Alexander45BEL1:35:351:35:354:32 13.2530ve1763T?l?chargez votre diplome!
74.673WILSSENS Jean Pierre57BELVOLHARDING1:35:411:35:414:33 13.2315ve2761BEVERENT?l?chargez votre diplome!
75.1058VALCKX Geert51BEL1:35:491:35:584:33 13.1916ve2758BERTEMT?l?chargez votre diplome!
76.1203KLINKENBERG Christian Paul44BELHELOWA1:35:421:36:004:33 13.1931ve1759BAELENT?l?chargez votre diplome!
77.750FLEURY Philippe51BELJACO1:35:551:36:034:34 13.1817ve2755MARIEMBOURGT?l?chargez votre diplome!
78.887AHELCHIAA Mohamed54BELCSFMYSTERE1:36:161:36:204:34 13.1418ve2749FORESTT?l?chargez votre diplome!
79.1017DICKBURT VELAZQUEZ Charles33BEL1:36:181:36:264:35 13.1324sen748HEVILLERST?l?chargez votre diplome!
80.1156FLECOQ Francoise53BEL1:36:231:36:274:35 13.131ai2746T?l?chargez votre diplome!
81.1175FHACK Paulina38BELCACE1:36:431:36:504:36 13.081dam741T?l?chargez votre diplome!
82.687LUX Ralph49BEL1:36:391:36:514:36 13.0732ve1741LA CALAMINET?l?chargez votre diplome!
83.531ANTENUCCI Mauro57BELESM1:37:091:37:144:37 13.0219ve2734GOSSELIEST?l?chargez votre diplome!
84.1068MACKELS Ralf42BEL1:37:101:37:354:38 12.9833ve1732T?l?chargez votre diplome!
85.1091HENDERYCKX Gert51BEL1:37:291:37:374:38 12.9720ve2727T?l?chargez votre diplome!
86.1127KOHNENMERGEN Gerd45BELEIFELSCHMERZ1:37:361:37:404:38 12.9634ve1725AMELT?l?chargez votre diplome!
87.988FANCHINI Yves45BEL1:37:361:37:454:38 12.9535ve1724T?l?chargez votre diplome!
88.1158WINANDY Guy58BELRCSPA1:37:411:37:524:39 12.9421ve2722VERVIERST?l?chargez votre diplome!
89.816DOSSERAY Roger Lucien68BELCHALLENGE L'AVE1:37:571:37:594:39 12.926ve3718PEPINSTERT?l?chargez votre diplome!
90.841SALVATO Domenico51ITACSFMYSTERE1:37:471:38:024:39 12.9122ve2719BRUXELLEST?l?chargez votre diplome!
91.1006CELIS Paul59BELLIERNIJLEN A.V.1:38:101:38:134:40 12.8923ve2713NIJLENT?l?chargez votre diplome!
92.446RIJCKAERT Fabian44BEL1:38:141:38:224:40 12.8736ve1711ANDENNET?l?chargez votre diplome!
93.1141BINKERT Marc53BELLDLV1:38:181:38:274:40 12.8624ve2710T?l?chargez votre diplome!
94.128BAURIN Herve49BEL1:38:241:38:314:41 12.8537ve1707AGIMONTT?l?chargez votre diplome!
95.856FBORN Margot54BELACEIFSCBUTG1:38:271:38:324:41 12.852ai2706SCHÖNBERGT?l?chargez votre diplome!
96.1042MASSART Corentin17BELSMACRCNAMUR1:38:261:38:464:41 12.821esp705PROFONDEVILLET?l?chargez votre diplome!
97.404TILBURGS Frank47BELAVN1:38:351:38:484:41 12.8238ve1702MEERT?l?chargez votre diplome!
98.1066WYNS Jos62BELHULSHEISTSE BERGLOP1:38:421:38:504:42 12.817ve3700HALLAART?l?chargez votre diplome!
99.1052SCHNEIDER Roland38BELNIDRUM1:38:441:38:504:42 12.8125sen699NIDRUMT?l?chargez votre diplome!
100.837CEUPPENS Paul53BELHAMURABI1:38:481:39:004:42 12.7925ve2697LINTT?l?chargez votre diplome!
101.889LECRENIER Benjamin30BELRCNAMURCNAMUR1:39:061:39:094:42 12.7726sen692FRANIERET?l?chargez votre diplome!
102.1037LÖHR Dirk48DEUSC KOMET STECKE1:39:041:39:114:42 12.7739ve1692SIMMERATHT?l?chargez votre diplome!
103.387BOSKIN Bernard26BEL1:38:581:39:184:43 12.7527sen692STAVELOTT?l?chargez votre diplome!
104.378WEYNAND Helmut71BELSCBUTG1:39:191:39:224:43 12.741ve4687ROCHERATHT?l?chargez votre diplome!
105.1087DELBAERE Rene56BEL1:39:231:39:294:43 12.7326ve2685BERCHEMT?l?chargez votre diplome!
106.1134VERHEIRSTRAETEN Johnny51BEL1:39:431:39:514:44 12.6827ve2680T?l?chargez votre diplome!
107.1062VAN MELLAERT Herman56BELHRC1:40:041:40:134:45 12.6328ve2675LEUVENT?l?chargez votre diplome!
108.1009FCOLGEN Kornelia45BELBELLEVAUX RUNNI1:40:141:40:144:46 12.632ai1671MALMEDYT?l?chargez votre diplome!
109.83PEETERS Quentin35BELSPT WAVRE1:40:161:40:234:46 12.6128sen670LIMALT?l?chargez votre diplome!
110.757WECHSELER William51BELLACEERTK1:39:591:40:254:46 12.6129ve2673LA CALAMINET?l?chargez votre diplome!
111.324CORNET Fabrice45BEL1:40:341:40:414:47 12.5840ve1665TINLOTT?l?chargez votre diplome!
112.1093FDRIES Sabine38BEL1:40:391:40:434:47 12.572dam663T?l?chargez votre diplome!
113.1190PHILIPPENS Christophe Denis38BEL1:40:351:40:454:47 12.5729sen662OUPEYET?l?chargez votre diplome!
114.1100CELLO Christophe35BEL1:40:311:40:514:47 12.5530sen662T?l?chargez votre diplome!
115.1187GELUK Sebastien40BEL1:40:241:40:514:47 12.5541ve1663T?l?chargez votre diplome!
116.1148GREGOIRE Frederic36BEL1:40:571:41:054:48 12.5331sen655T?l?chargez votre diplome!
117.1211PAPY Geoffrey23BEL1:40:421:41:064:48 12.5232sen657T?l?chargez votre diplome!
118.1208DAMBLON Patrick48BEL1:40:421:41:074:48 12.5242ve1656T?l?chargez votre diplome!
119.1080BECQUET Rony58BELLYRA1:41:041:41:074:48 12.5230ve2651T?l?chargez votre diplome!
120.1192WAUCOMONT Benoit37BEL1:41:011:41:104:48 12.5233sen651T?l?chargez votre diplome!
121.1031HUYBRECHTS Bart40BEL1:41:071:41:124:48 12.5143ve1649TURNHOUTT?l?chargez votre diplome!
122.332HANNARD Kevin31BEL1:41:111:41:144:48 12.5134sen647AUVELAIST?l?chargez votre diplome!
123.1112WOLFF Berthold60BEL1:41:141:41:174:49 12.508ve3645T?l?chargez votre diplome!
124.1132SCHAUS Dieter48BEL1:41:131:41:354:49 12.4644ve1644T?l?chargez votre diplome!
125.1191THOMAS Xavier42BEL1:41:291:41:394:50 12.4645ve1640T?l?chargez votre diplome!
126.1135BRAUN Karlheinz48BEL1:41:401:41:504:50 12.4346ve1637T?l?chargez votre diplome!
127.580HOMBROUX Marcel61BELFCHAHANUT JOG1:41:321:41:554:50 12.429ve3638MONTENAKENT?l?chargez votre diplome!
128.255ADAMS Ludo52BELAVN1:41:451:41:574:50 12.4231ve2634MERKSPLAST?l?chargez votre diplome!
129.1169FDARDENNE Murielle36BELSPTWAVR1:41:501:41:584:50 12.423dam632T?l?chargez votre diplome!
130.1073VANDERLINDEN Marc56BELTRAINING 71:41:361:42:064:51 12.4032ve2634BRUXELLEST?l?chargez votre diplome!
131.1152VAN DUPPEN Dries33BEL1:42:111:42:154:51 12.3835sen626T?l?chargez votre diplome!
132.1204HONS Danny45BEL1:42:041:42:224:52 12.3747ve1626T?l?chargez votre diplome!
133.1003BEQUET Marc51BELAC LYR1:42:221:42:314:52 12.3533ve2622LIERT?l?chargez votre diplome!
134.926GREVISSE David40BELRONVAU1:42:271:42:354:52 12.3448ve1620CHAUMONT GISTOUXT?l?chargez votre diplome!
135.396SOMERS Ludo51BELHAMURABI1:42:251:42:384:52 12.3434ve2620LINTT?l?chargez votre diplome!
136.352BEYAERT Matthieu40BELRONVAU1:42:271:42:444:53 12.3249ve1618BOUSVALT?l?chargez votre diplome!
137.1210CANALES Alberto59BELLE JOUR1:42:231:42:484:53 12.3235ve2618T?l?chargez votre diplome!
138.952FVON AGRIS Christa49BELLACERTK1:42:451:42:504:53 12.313ai1612WELKENRAEDTT?l?chargez votre diplome!
139.1164PAULIS Rene38LUXVEDGER DIDDELDÖ1:42:471:42:534:53 12.3136sen612HOLDANGET?l?chargez votre diplome!
140.532FDE VROEDE Nadine53BELUSBWMYSTERE1:42:451:42:564:53 12.303ai2611BRAINE L'ALLEUDT?l?chargez votre diplome!
141.465BOSKIN Jean-Claude59BELLES IDYLLES1:42:571:43:064:54 12.2836ve2608STAVELOTT?l?chargez votre diplome!
142.261RIESTRA Jose Manuel44ESPCSFMYSTERE1:42:571:43:134:54 12.2750ve1606UCCLET?l?chargez votre diplome!
143.1032JUSTE Christiaan58BELLE JOUR1:42:531:43:154:54 12.2637ve2606BOUTERSEMT?l?chargez votre diplome!
144.1033FKESSLER Stephanie30BELAC EIFEL1:43:101:43:174:54 12.264dam602WEYWERTZT?l?chargez votre diplome!
145.608ROSSI Stéphane Joseph48BELSCBUTG1:43:121:43:174:54 12.2651ve1601WAIMEST?l?chargez votre diplome!
146.1106NAGEL Norbert48BEL1:43:061:43:204:54 12.2552ve1601T?l?chargez votre diplome!
147.1010CRATZBORN Jérôme37BELYOGGING CLUB1:43:111:43:234:54 12.2537sen599WAIMEST?l?chargez votre diplome!
148.1054SCHONMACKER Frederic43BEL1:43:181:43:394:55 12.2253ve1597MARCINELLET?l?chargez votre diplome!
149.1088LANNOYE Dirk41BEL1:43:461:43:524:56 12.1954ve1590T?l?chargez votre diplome!
150.498HEYNDRICKX Jan52BELHAMURABI1:43:461:43:584:56 12.1838ve2590BERTEMT?l?chargez votre diplome!
151.820BIENFAIT Quentin36BELMSF1:43:491:44:024:56 12.1738sen588BRAYT?l?chargez votre diplome!
152.1081FBARTHOLOMEEUSEN Katrien45BEL1:43:541:44:054:56 12.164ai1586T?l?chargez votre diplome!
153.1030HANSEN J.Marie56BEL1:44:021:44:124:57 12.1539ve2583SPYT?l?chargez votre diplome!
154.715FBENOIT Brigitte51BELUSBWMYSTÈRE1:44:021:44:194:57 12.144ai2582BRAINE-L'ALLEUDT?l?chargez votre diplome!
155.22DE MASI Gianni61ITAFLEU1:44:261:44:324:58 12.1110ve3577WANFERCEE BAULETT?l?chargez votre diplome!
156.1182FWINTGENS Chantal Marie44BELTRITEAM EUPEN1:44:221:44:334:58 12.115ai1577LONTZENT?l?chargez votre diplome!
157.1174FLEDENT Sandrine38BELTRI TEAM EUPEN1:44:241:44:354:58 12.115dam575T?l?chargez votre diplome!
158.860KRÄEMER Siegfried54BELACEIFSCBUTG1:44:271:44:354:58 12.1140ve2574SCHÖNBERGT?l?chargez votre diplome!
159.136FHAELTERMAN Florence35BELSPT WAVRE1:44:431:44:504:59 12.086dam570LIMALT?l?chargez votre diplome!
160.1015DE STAERCKE Jean-Benoit57BEL1:44:461:44:534:59 12.0741ve2568HALTINNET?l?chargez votre diplome!
161.1125REINARTZ Wilfried55BELLACE1:44:351:44:544:59 12.0742ve2569T?l?chargez votre diplome!
162.904VERVLOET Guido51BELHEISTSE BERGLOP1:45:051:45:145:00 12.0343ve2563HEIST OP DEN BERGT?l?chargez votre diplome!
163.880FDERMAUX Ann49BELHEISTSE BERGLOP1:45:051:45:145:00 12.036ai1562HEIST OP DEN BERGT?l?chargez votre diplome!
164.1044MENNICKEN Roger54BELEYNATTEN1:45:051:45:225:00 12.0244ve2561EYNATTENT?l?chargez votre diplome!
165.1177MULLER Gerd50BELARDOC1:45:041:45:275:00 12.0145ve2560T?l?chargez votre diplome!
166.1201FASSIN Jérôme Emmanuel37BEL1:45:101:45:315:01 12.0039sen558MALMEDYT?l?chargez votre diplome!
167.1055SOONS Bart39BEL1:45:111:45:335:01 12.0040sen557NEEROETERENT?l?chargez votre diplome!
168.1071RAEYMAEKERS Ludovic60BEL1:45:161:45:355:01 11.9911ve3555MORTSELT?l?chargez votre diplome!
169.1008CLASSEN Thierry31BEL1:45:321:45:365:01 11.9941sen551ST. VITHT?l?chargez votre diplome!
170.1136BRULS Christian25DEU1:45:281:45:465:01 11.9742sen551T?l?chargez votre diplome!
171.858LEWILLION Philippe48BELFER1:45:371:45:485:01 11.9755ve1548JURBISET?l?chargez votre diplome!
172.1121WARGE Eddy45BEL1:45:331:45:525:02 11.9656ve1548T?l?chargez votre diplome!
173.537ERTZINGER Jean Pierre61BELZURENBORG SPORT1:45:421:45:545:02 11.9612ve3545ANTWERPENT?l?chargez votre diplome!
174.1092DETHIER Xavier36BEL1:45:581:46:055:02 11.9443sen541T?l?chargez votre diplome!
175.1221GREGOIRE Christophe28BEL1:45:521:46:115:02 11.9244sen541T?l?chargez votre diplome!
176.1220FLEDENT Romy24BEL1:45:541:46:115:02 11.927dam540T?l?chargez votre diplome!
177.1002BENKER Alex53BELONECHEWFREEFAR1:46:101:46:155:03 11.9246ve2536BERGT?l?chargez votre diplome!
178.1067JOOSTENS Wilfried59BEL1:46:061:46:185:03 11.9147ve2536T?l?chargez votre diplome!
179.1040MAGOTTEAUX Hubert51BELNACNAC1:46:121:46:305:03 11.8948ve2534OBAIXT?l?chargez votre diplome!
180.517KOLP Christian60BEL1:46:331:46:445:04 11.8613ve3528BRUXELLEST?l?chargez votre diplome!
181.1213FVAN AS Nathalie41BEL1:46:391:46:495:04 11.857ai1526T?l?chargez votre diplome!
182.1214DEDOYARD Noel43BEL1:46:391:46:505:04 11.8557ve1526T?l?chargez votre diplome!
183.1083FLANDTMETERS Christine48BELHRC1:46:461:46:575:05 11.848ai1523BOUTERSEMT?l?chargez votre diplome!
184.1028FGOFFART Ellen24BELSCBTRISCBÜTGENBACH1:46:531:47:005:05 11.838dam521BÜTGENBACHT?l?chargez votre diplome!
185.1129VERCAMMEN Roger64BEL1:46:571:47:055:05 11.8214ve3519T?l?chargez votre diplome!
186.55ROBERTI DE WINGHE Max59BELLACRONVAU1:47:051:47:145:05 11.8149ve2517ARCHENNEST?l?chargez votre diplome!
187.1050ROBERTI DE WINGHE Nicolas30BELROBERTIRUNNERS1:47:061:47:155:05 11.8145sen516BRUXELLEST?l?chargez votre diplome!
188.1045MOUSNY Bernard59BEL1:47:151:47:205:06 11.8050ve2513COUTHUINT?l?chargez votre diplome!
189.1046FMOUSNY Sabine49BEL1:47:161:47:205:06 11.809ai1512COUTHUINT?l?chargez votre diplome!
190.1098JERUSALEM Olivier39BEL1:47:201:47:305:06 11.7846sen510T?l?chargez votre diplome!
191.1183PLUMACHER Thierry36BEL1:47:221:47:405:07 11.7647sen509T?l?chargez votre diplome!
192.1111HAGELSTEIN Jean-Francois33BEL1:47:261:47:425:07 11.7648sen507FENEURT?l?chargez votre diplome!
193.1074FDRIES Daniela37BEL1:47:291:47:515:07 11.749dam505T?l?chargez votre diplome!
194.1133BACKES Reinhold58BEL1:47:291:47:515:07 11.7451ve2505T?l?chargez votre diplome!
195.1144HUNNEKES Christoph51BELTV KONZ1:47:301:47:525:07 11.7452ve2503T?l?chargez votre diplome!
196.1176THONNES Stephan33BEL1:47:531:48:005:08 11.7249sen498T?l?chargez votre diplome!
197.1014DE SADELEER Winoc49BELVOLHARDING1:48:021:48:075:08 11.7158ve1495BEVERENT?l?chargez votre diplome!
198.1084JANSSEN Andre58BEL1:47:591:48:095:08 11.7153ve2495T?l?chargez votre diplome!
199.1185WOUTERS Wim43BEL1:47:581:48:175:08 11.6959ve1494TREMELOT?l?chargez votre diplome!
200.1184FAYMONVILLE Patrick27BEL1:48:031:48:205:09 11.6950sen492T?l?chargez votre diplome!
201.1194WAMPACH Luc46BEL1:48:001:48:245:09 11.6860ve1492AMEL/AMBLÈVET?l?chargez votre diplome!
202.1147LANGER Jurgen34BEL1:48:131:48:315:09 11.6751sen489T?l?chargez votre diplome!
203.937VANDERLINDEN Denis36BEL1:48:201:48:375:09 11.6652sen487CHÊNÉET?l?chargez votre diplome!
204.1189FBIET Nana47BELRCASPARCASPA1:48:271:48:395:09 11.6510ai1484T?l?chargez votre diplome!
205.1047FNYSSEN Monique51BELERTK1:48:571:49:025:11 11.615ai2478PLOMBIÈREST?l?chargez votre diplome!
206.124LE CHARLIER Baudouin64BEL1:49:011:49:185:11 11.5815ve3476NAMURT?l?chargez votre diplome!
207.185BOURSIE Joseph66BELLACEERTK1:49:241:49:275:12 11.5716ve3471LACALAMINET?l?chargez votre diplome!
208.1181DELMOTTE Martin35BELSPT WAVRE1:49:251:49:335:12 11.5653sen470HEVERLEET?l?chargez votre diplome!
209.1155LEYENS Patrick42BEL1:49:411:49:505:13 11.5361ve1465T?l?chargez votre diplome!
210.1103KOLBE Udo49DEU1:49:401:50:025:13 11.5162ve1465T?l?chargez votre diplome!
211.1090VERHAEGEN Eddy68BEL1:50:051:50:155:14 11.4817ve3459T?l?chargez votre diplome!
212.949ANDRES Michael36BEL1:50:061:50:165:14 11.4854sen458NAMURT?l?chargez votre diplome!
213.544ROCHUS David32BEL1:50:171:50:315:15 11.4655sen455SCHAERBEEKT?l?chargez votre diplome!
214.696LECLEF Sebastien34BELCSFMYSTERE1:50:361:50:515:16 11.4256sen451FORESTT?l?chargez votre diplome!
215.1165BOGAR Tony50BELZAFTERS 11:50:311:51:005:16 11.4154ve2451GRAND-RECHAINT?l?chargez votre diplome!
216.1149REGNIER Didier47BEL1:50:311:51:005:16 11.4163ve1450DISONT?l?chargez votre diplome!
217.1197SARDY Medhi33BEL1:50:591:51:105:17 11.3957sen443T?l?chargez votre diplome!
218.1116DINON Sebastien35BEL1:50:491:51:105:17 11.3958sen445T?l?chargez votre diplome!
219.1023FEUILLET Johan49BELHTT1:50:551:51:225:17 11.3764ve1443DEUX-ACRENT?l?chargez votre diplome!
220.853FMEESSEN Arlette47BELLACEERTK1:51:411:51:455:18 11.3311ai1433BAELENT?l?chargez votre diplome!
221.454MAURO Calogero74ITASERSER ATHL1:51:521:52:035:19 11.302ve4430SERAINGT?l?chargez votre diplome!
222.1113FDESSENT Liesbeth35BEL1:51:391:52:045:19 11.3010dam431T?l?chargez votre diplome!
223.1119OBBELS Paul64BEL1:52:071:52:205:20 11.2718ve3425T?l?chargez votre diplome!
224.1025FÖRSTER Nils25BELEUREHA1:51:571:52:225:20 11.2759sen426RAERENT?l?chargez votre diplome!
225.1049PIRLOT André63BELEPIDEMIE1:52:071:52:345:21 11.2519ve3424REMICOURTT?l?chargez votre diplome!
226.1063FVAN WIJMEERSCH Agnes42BELHRC1:52:161:52:365:21 11.2412ai1421KESSEL-LOT?l?chargez votre diplome!
227.1059VANDEN ABEEL Rudy35BEL1:52:241:52:465:21 11.2360sen419DIEPENBEEKT?l?chargez votre diplome!
228.1120DENIS Vincent49BEL1:53:011:53:065:22 11.1965ve1411T?l?chargez votre diplome!
229.695DE DAPPER David41BELCSFMYSTERE1:53:091:53:095:22 11.1966ve1408BRUXELLEST?l?chargez votre diplome!
230.1212ANTOINE Vincent39BEL1:53:001:53:105:22 11.1961sen409T?l?chargez votre diplome!
231.1118NEUMANN Frank47BEL1:53:001:53:155:22 11.1867ve1408T?l?chargez votre diplome!
232.1142FGAUTROIS Simone45BELTV KONZ1:53:041:53:265:23 11.1613ai1406T?l?chargez votre diplome!
233.1162FSUETENS Christel45BEL1:53:221:53:335:23 11.1514ai1402T?l?chargez votre diplome!
234.1200BOUHON Didier45BELTPALM1:53:141:53:355:23 11.1568ve1403T?l?chargez votre diplome!
235.967FURBAIN Ginette62FRASPIBOR1:53:331:53:445:24 11.131ai3398BELLIGNIEST?l?chargez votre diplome!
236.607TOUSSAINT Patrick45BELROSCO TAEM1:53:441:53:445:24 11.1369ve1396WAIMEST?l?chargez votre diplome!
237.49DEGROOT Jean66BELFCHAHANUT JOG1:53:381:53:465:24 11.1320ve3396HANNUTT?l?chargez votre diplome!
238.1146FFATZAUN Danielle47BELLAC1:53:431:53:485:24 11.1315ai1394T?l?chargez votre diplome!
239.1209NICOLAYE Francis55BEL1:53:251:53:495:24 11.1255ve2396T?l?chargez votre diplome!
240.1188BRAHAM Patrick37BELHERV1:53:291:53:565:24 11.1162sen394T?l?chargez votre diplome!
241.1128MERTES Maximilian17BELSC BÜTG1:54:001:54:055:25 11.102esp388T?l?chargez votre diplome!
242.76FMORRIS Nicola-Elizabeth54BELENJWOL1:54:001:54:075:25 11.096ai2387BRUXELLEST?l?chargez votre diplome!
243.304GRZESINSKI Bernard53BELSERUNNERS1:53:591:54:095:25 11.0956ve2386FLEMALLET?l?chargez votre diplome!
244.1117VAN HERCK Dirk54BEL1:53:551:54:095:25 11.0957ve2386T?l?chargez votre diplome!
245.457FMARGUINIO Danielle62BEL16501:54:101:54:215:26 11.072ai3382HEUSYT?l?chargez votre diplome!
246.1095STEFFENS Peter48BEL1:54:081:54:245:26 11.0770ve1382T?l?chargez votre diplome!
247.1145FISAAC Marion51BELTV KONZ1:54:131:54:345:26 11.057ai2380T?l?chargez votre diplome!
248.1131NOEL Stephan41BEL1:54:211:54:395:26 11.0471ve1378BRUXELLEST?l?chargez votre diplome!
249.1172DUVIVIER Marc50BEL1:54:321:54:445:27 11.0458ve2375T?l?chargez votre diplome!
250.1079VERBECK Ward51BELLYRA1:54:551:55:065:28 11.0059ve2370T?l?chargez votre diplome!
251.1161SCHEERS Roger63BELLYRA1:54:551:55:075:28 11.0021ve3368T?l?chargez votre diplome!
252.366FLANSLOTS Viviane49BELAVN1:54:491:55:095:28 11.0016ai1369MERKSPLAST?l?chargez votre diplome!
253.1171CLAASSEN Klaus56BELDLCAACHE1:55:051:55:215:28 10.9860ve2365T?l?chargez votre diplome!
254.1024FINK Edgar61BELNIDRUM1:55:111:55:325:29 10.9622ve3363NIDRUMT?l?chargez votre diplome!
255.73VERHOFSTADT Camille69BEL1:55:221:55:325:29 10.9623ve3360MARBAIX-LA-TOURT?l?chargez votre diplome!
256.1061FVAN GOIDSENHOVEN Liesbet35BELHRC1:55:141:55:345:29 10.9611dam361LEUVENT?l?chargez votre diplome!
257.663HOSTE Peter52BELVOLHARDING1:55:521:55:565:30 10.9261ve2353BEVERENT?l?chargez votre diplome!
258.1205KOHNEN Stephan38BEL1:55:451:56:095:31 10.9063sen353T?l?chargez votre diplome!
259.437EHLINGER Alain62BELAVT1:56:351:56:475:33 10.8424ve3344BERCHEMT?l?chargez votre diplome!
260.1099HEUKEMES Mario47BELSCBUTG1:56:481:56:575:33 10.8372ve1340ELSENBORNT?l?chargez votre diplome!
261.434HENROTTIN Pierre50BEL1:56:341:57:025:33 10.8262ve2342LIMBOURGT?l?chargez votre diplome!
262.424DRIESSENS Pierre67BELSERSERUNNER1:56:551:57:065:33 10.8125ve3337SERAINGT?l?chargez votre diplome!
263.177HIGUET Pierre50BELJCCS1:57:091:57:215:34 10.7963ve2334VONECHET?l?chargez votre diplome!
264.285MUYTJENS Rene69BELANTILOB1:57:151:57:215:34 10.7926ve3332OTTIGNIEST?l?chargez votre diplome!
265.892FMIDDEL Ine56BEL1:57:121:57:255:34 10.788ai2331ROTSELAART?l?chargez votre diplome!
266.1022FFACEN Beatrice55BELBELLEVAUX RUNNI1:57:511:57:575:36 10.739ai2324MALMEDYT?l?chargez votre diplome!
267.1020DIVENS Niels22BEL1:57:441:58:075:36 10.7264sen324BOUTERSEMT?l?chargez votre diplome!
268.1019DIVENS Marc49BEL1:57:441:58:075:36 10.7273ve1323BIERBEEKT?l?chargez votre diplome!
269.1039FMAGNEE Dominique61BEL1:58:091:58:205:37 10.703ai3318OUPEYET?l?chargez votre diplome!
270.1021DORSCHEID Michael55DEULG AMSEL1:58:161:58:295:37 10.6964ve2315STOLBERG-ZWEIFALLT?l?chargez votre diplome!
271.1124REINARTZ Werner41BEL1:58:541:58:595:39 10.6474ve1308T?l?chargez votre diplome!
272.1207LIBOIS Olivier45BELRCNAMUR1:58:551:59:145:40 10.6275ve1307T?l?chargez votre diplome!
273.1206FLIBOIS Sophie44BELRCNAMUR1:58:541:59:155:40 10.6217ai1306T?l?chargez votre diplome!
274.1089SMEKENS Luc53BELHRC1:59:081:59:305:40 10.5965ve2303T?l?chargez votre diplome!
275.739AZZOLINI Adriano52BELSERSERUNNER1:59:582:00:075:42 10.5466ve2293FLEMALLET?l?chargez votre diplome!
276.575FVANWEDDINGEN Anne51BEL1:59:532:00:105:42 10.5410ai2293BRUXELLEST?l?chargez votre diplome!
277.1140HALLET Philippe42BEL1:59:542:00:165:42 10.5376ve1292T?l?chargez votre diplome!
278.929FCHRISTOPHE Na Young41BELCSFMYSTERE2:00:002:00:175:43 10.5318ai1290WATERMAEL-BOITSFORTT?l?chargez votre diplome!
279.186FHILLEN Hilde46BELAVN2:00:182:00:375:43 10.5019ai1286MEERT?l?chargez votre diplome!
280.1218FGILLES Chantal56BEL2:00:322:00:465:44 10.4811ai2282VILLERS LE TEMPLET?l?chargez votre diplome!
281.1160SEGERS Geert46BEL2:00:462:00:465:44 10.4877ve1280T?l?chargez votre diplome!
282.1016DE TAVERNIER Jo57BELHRC2:00:252:00:465:44 10.4867ve2282ROTSELAART?l?chargez votre diplome!
283.1219COLLARD Alain60BEL2:00:342:00:465:44 10.4827ve3280T?l?chargez votre diplome!
284.784BIENFAIT Benjamin31BELL'EOLIEN2:00:442:00:585:44 10.4765sen277QUÉVY-LE-PETITT?l?chargez votre diplome!
285.1108FCANDITO Lucie42BEL2:00:472:01:105:45 10.4520ai1275T?l?chargez votre diplome!
286.1107FTYCHON Francoise45BEL2:00:472:01:105:45 10.4521ai1274T?l?chargez votre diplome!
287.1027FGILS Greet51BELHRC2:00:562:01:165:45 10.4412ai2272LEUVENT?l?chargez votre diplome!
288.1130KEGELAERS Gerd56BELAC LIER2:01:202:01:285:46 10.4268ve2267T?l?chargez votre diplome!
289.1097FPIOT An-Katrien40BEL2:01:122:01:355:46 10.4122ai1267T?l?chargez votre diplome!
290.1096VANVOORDEN Philip Jozef44BEL2:01:132:01:365:46 10.4178ve1266HASSELTT?l?chargez votre diplome!
291.1104FBOEHNKE Susan42BEL2:01:152:01:395:46 10.4123ai1265T?l?chargez votre diplome!
292.34FMONDOVITS Benedicte45BELCSFMYSTERE2:01:232:01:405:46 10.4124ai1262FORESTT?l?chargez votre diplome!
293.176FVERPLAETSE Johanna43BELCSFMYSTERE2:01:242:01:405:46 10.4125ai1262FORESTT?l?chargez votre diplome!
294.1178BERNARD Eric53BEL2:01:122:01:415:46 10.4069ve2263T?l?chargez votre diplome!
295.64DEWIGNE Bernard57BELCSDYC.S.DYLE GENAPP2:01:282:01:425:47 10.4070ve2259OTTIGNIEST?l?chargez votre diplome!
296.23KAISIN Alain51BEL2:01:302:01:525:47 10.3971ve2258FLOREFFET?l?chargez votre diplome!
297.31HURLET Bernard61BEL2:01:302:01:565:47 10.3828ve3257HERBESTHALT?l?chargez votre diplome!
298.1168SIEMONS Werner58BEL2:02:152:02:315:49 10.3372ve2249T?l?chargez votre diplome!
299.157ORANGE Tom42BEL2:02:092:02:365:49 10.3379ve1248T?l?chargez votre diplome!
300.368VIAENE Bernard69BELHERV2:02:112:02:375:49 10.3229ve3247HERVET?l?chargez votre diplome!
301.1153FFLEURY Annie54BEL2:02:172:02:445:49 10.3213ai2245T?l?chargez votre diplome!
302.762DELPORT Patrick59BELANTILOB2:02:242:02:525:50 10.3073ve2243BRUXELLEST?l?chargez votre diplome!
303.309CHARLIER Guy55BELCSFMYSTERE2:02:542:03:125:51 10.2874ve2237UCCLET?l?chargez votre diplome!
304.1196PIANCATELLI Paolo51BEL2:03:532:04:145:54 10.1975ve2226T?l?chargez votre diplome!
305.1085HANNES Krause32BEL2:04:072:04:305:54 10.1766sen223T?l?chargez votre diplome!
306.1138KRINS Jean-Victor51BEL2:04:342:04:525:56 10.1476ve2218T?l?chargez votre diplome!
307.797FSTIENON Catherine43BELCSFMYSTERE2:04:402:04:565:56 10.1326ai1216UCCLET?l?chargez votre diplome!
308.798FDEBONI Malorie30BELCSFMYSTERE2:04:402:04:565:56 10.1312dam215BRRUXELLEST?l?chargez votre diplome!
309.372FLEBEAU Marianne50BELUSBWMYSTERE2:04:382:04:565:56 10.1314ai2214RHODE SAINT GENESET?l?chargez votre diplome!
310.686FLIGNY Caroline53BELC.F. LA FORESTO2:04:422:04:575:56 10.1315ai2213BRUXELLEST?l?chargez votre diplome!
311.241FVANDERLINDEN Julie30BELCEPALTRAINING 72:04:392:04:575:56 10.1313dam212KRAAINEMT?l?chargez votre diplome!
312.1114QUIRYNEN Jan58BELLIERSE2:04:412:04:595:56 10.1377ve2211T?l?chargez votre diplome!
313.666FPANFILI Daniela43ITAENJAMBEE2:05:102:05:175:57 10.1127ai1205BRUXELLEST?l?chargez votre diplome!
314.875FMARQUET Ginette58BEL2:05:442:05:505:58 10.0616ai2199POLLEURT?l?chargez votre diplome!
315.1159FFARCY Monique62BEL2:05:452:05:525:58 10.064ai3198MALMEDYT?l?chargez votre diplome!
316.59LIEGEOIS Jean-Louis62BEL2:05:332:06:005:59 10.0530ve3199T?l?chargez votre diplome!
317.242ALLARD Vincent46BEL2:06:072:06:346:00 10.0080ve1192FLAWINNET?l?chargez votre diplome!
318.806VASAUNE Michel49BELFLEU2:06:242:06:506:01 9.9881ve1188JEMEPPE SUR SAMBRET?l?chargez votre diplome!
319.200FCORNET Anne48BELFLEU2:06:242:06:506:01 9.9828ai1187JEMEPPE SUR SAMBRET?l?chargez votre diplome!
320.1154FDE FRIES Barbara61BEL2:06:572:07:136:02 9.955ai3181T?l?chargez votre diplome!
321.793DELEU Gabriel63BELEPIDEMIE2:07:062:07:336:03 9.9331ve3179REMICOURT-HODEIGET?l?chargez votre diplome!
322.260FDE BERDT Patricia56BELSPTWAVR2:07:212:07:356:03 9.9217ai2176WAVRET?l?chargez votre diplome!
323.232MANFROID Pol67BELDACM2:07:192:07:476:04 9.9132ve3175BRUXELLEST?l?chargez votre diplome!
324.189MARIEN Rik65BELC.H.G.B.2:07:332:07:476:04 9.9133ve3172HASSELTT?l?chargez votre diplome!
325.885GRIETENS Kris42BELHAMURABI2:07:372:07:516:04 9.9082ve1170MEERHOUTT?l?chargez votre diplome!
326.1026FFRANSSEN Georgette54BELLACE2:08:032:08:286:06 9.8518ai2165EUPENT?l?chargez votre diplome!
327.1011FCREMER Katia26BELLACE2:08:032:08:296:06 9.8514dam164EUPENT?l?chargez votre diplome!
328.871FKOOB Marie Cecile44BELE.T.CHIEVRES2:08:342:08:456:07 9.8329ai1158JURBISET?l?chargez votre diplome!
329.1043FMASSART Maryn19BELSMACRCNAMUR2:08:482:09:086:08 9.801esf155PROFONDEVILLET?l?chargez votre diplome!
330.7FHENNERESSE Isabelle44BELJOGGANS2:08:472:09:136:08 9.8030ai1154GEDINNET?l?chargez votre diplome!
331.1122WUYTS Leon69BELK LIERS2:09:232:09:376:09 9.7734ve3147T?l?chargez votre diplome!
332.312OOSTERS Michel54BELENJAMBEE2:09:372:09:506:10 9.7578ve2144WOLUWE ST PIERRET?l?chargez votre diplome!
333.985CIEPERS Johnny22BEL2:10:062:10:066:10 9.7367sen139HASTIERET?l?chargez votre diplome!
334.448ROMAIN Bernard57BEL2:09:532:10:116:11 9.7379ve2140CHASTRET?l?chargez votre diplome!
335.1057VAESEN Gilbert61BELNONNON2:10:022:10:136:11 9.7235ve3138OUPEYET?l?chargez votre diplome!
336.1082FFIAS Lore41BEL2:10:362:10:506:13 9.6831ai1131T?l?chargez votre diplome!
337.560DENIS Marcel69BELRONVAU2:11:082:11:226:14 9.6436ve3125OTTIGNIEST?l?chargez votre diplome!
338.1078FREYNIERS Katrien32BEL2:11:182:11:396:15 9.6215dam123T?l?chargez votre diplome!
339.1004BORDUI Dirk52BELVOLHARDING2:11:502:11:556:16 9.6080ve2117STEKENET?l?chargez votre diplome!
340.440ETIENNE Christian63BELRCNAMUR2:12:072:12:296:17 9.5637ve3113LEUZE-LONGCHAMPST?l?chargez votre diplome!
341.1151WEYNAND Berni53BEL2:12:242:12:406:18 9.5481ve2110T?l?chargez votre diplome!
342.1195FGENTEN Sonja45BEL2:13:022:13:266:20 9.4932ai1103SCHOPPENT?l?chargez votre diplome!
343.305FVANDERMISSEN Patricia51BELSERUNNERS2:13:442:14:116:22 9.4419ai295FLEMALLET?l?chargez votre diplome!
344.971VANHEES Jean-Louis61BELGAG2:16:342:16:556:30 9.2538ve369PERWEZT?l?chargez votre diplome!
345.1094FSCHEIDT Diana41BELRONREN2:17:082:17:196:31 9.2233ai1T?l?chargez votre diplome!
346.1202DE GUELDRE Philippe30BEL2:17:392:17:566:33 9.1868sen58T?l?chargez votre diplome!
347.1115OLIVIER Alain56BELBESIK2:20:312:20:526:41 8.9982ve232T?l?chargez votre diplome!
348.1166FFANK Dominique47BELLE JOUR LE COUR2:21:402:22:086:45 8.9134ai121GRAND-RECHAINT?l?chargez votre diplome!
349.1056FSTRADIOT Mathilde17BELDCLA2:23:562:24:206:51 8.772esf6HERENTT?l?chargez votre diplome!
350.1018DIVENS Brecht17BEL2:23:582:24:226:51 8.773esp5BIERBEEKT?l?chargez votre diplome!
351.869GENOT Yves58BELENJAMBEE2:24:212:24:356:52 8.7683ve24KRAINEMT?l?chargez votre diplome!
352.1005FCALIFICE Huberte61BELL'AVENIR VERVIE2:25:372:25:566:55 8.686ai33CHARNEUXT?l?chargez votre diplome!
353.65FSEGHERS Rita67BEL2:39:032:39:217:34 7.947ai32ZOTTEGEMT?l?chargez votre diplome!
354.1167FRISSCHEN Jacques74BEL2:41:082:41:277:40 7.843ve41T?l?chargez votre diplome!
355.1072DEFAYS Pol85BEL3:11:563:11:569:06 6.604ve41T?l?chargez votre diplome!
DNF738WILLEMS Lucas53BELVE2SAINT MARTIN
DNF: abandon; DSQ: disqualifié; Vitesse en km/h
Page: [1]